Time;durP1;ratioP1;P1;durP2;ratioP2;P2;SDS_P1;SDS_P2;PMS_P1;PMS_P2;Temp;Humidity;BMP_temperature;BMP_pressure;BME280_temperature;BME280_humidity;BME280_pressure;Samples;Min_cycle;Max_cycle;Signal;HPM_P1;HPM_P2
2023/04/15 00:00:55;;;;;;;8.20;3.13;;;;;;;1.36;99.62;96280.81;5026299;28;20515;-57
2023/04/15 00:03:21;;;;;;;5.90;2.15;;;;;;;1.41;99.38;96278.28;5020167;28;20045;-58
2023/04/15 00:05:48;;;;;;;4.55;2.60;;;;;;;1.42;99.29;96282.59;5020866;28;20737;-58
2023/04/15 00:08:15;;;;;;;6.28;2.95;;;;;;;1.46;99.61;96274.94;5016456;28;20111;-57
2023/04/15 00:10:43;;;;;;;5.70;2.58;;;;;;;1.48;98.41;96271.03;5018866;28;20219;-58
2023/04/15 00:13:09;;;;;;;7.18;2.65;;;;;;;1.56;98.15;96273.41;5024834;28;20045;-58
2023/04/15 00:15:36;;;;;;;7.97;2.90;;;;;;;1.51;98.56;96275.91;5019783;28;20415;-57
2023/04/15 00:18:03;;;;;;;6.68;3.03;;;;;;;1.54;98.89;96270.16;5021505;28;20044;-59
2023/04/15 00:20:30;;;;;;;6.65;2.45;;;;;;;1.66;97.85;96272.88;5014650;28;20126;-59
2023/04/15 00:22:58;;;;;;;6.43;2.92;;;;;;;1.64;97.69;96271.47;5017197;28;20042;-57
2023/04/15 00:25:25;;;;;;;6.30;2.70;;;;;;;1.58;98.01;96277.72;5017384;28;20073;-59
2023/04/15 00:27:51;;;;;;;6.55;3.05;;;;;;;1.51;98.75;96269.78;5027175;28;20451;-54
2023/04/15 00:30:18;;;;;;;6.07;2.90;;;;;;;1.48;98.66;96279.06;5023719;28;20720;-57
2023/04/15 00:32:45;;;;;;;7.45;2.85;;;;;;;1.54;98.20;96277.31;5019179;28;20037;-57
2023/04/15 00:35:12;;;;;;;7.45;2.67;;;;;;;1.51;98.07;96272.47;5026801;28;20076;-58
2023/04/15 00:37:39;;;;;;;6.93;2.90;;;;;;;1.50;97.97;96268.97;5022840;28;20080;-57
2023/04/15 00:40:11;;;;;;;8.73;3.00;;;;;;;1.55;98.01;96269.09;5026518;28;20037;-55
2023/04/15 00:42:38;;;;;;;5.13;2.80;;;;;;;1.64;97.57;96269.63;5021445;28;20125;-56
2023/04/15 00:45:05;;;;;;;7.80;3.40;;;;;;;1.77;96.90;96262.53;5013318;28;20812;-58
2023/04/15 00:47:34;;;;;;;6.22;2.80;;;;;;;1.86;96.16;96266.53;5022253;28;20045;-57
2023/04/15 00:50:01;;;;;;;6.05;2.97;;;;;;;1.91;95.58;96266.66;5025225;28;20107;-57
2023/04/15 00:52:27;;;;;;;5.50;2.63;;;;;;;1.80;96.38;96265.56;5029086;28;20573;-58
2023/04/15 00:54:54;;;;;;;8.40;3.08;;;;;;;1.85;96.26;96270.25;5026213;28;20033;-57
2023/04/15 00:57:21;;;;;;;6.53;2.78;;;;;;;1.67;96.94;96265.72;5023313;28;20041;-56
2023/04/15 00:59:50;;;;;;;9.15;3.00;;;;;;;1.52;97.86;96269.53;5020153;28;20048;-57
2023/04/15 01:02:16;;;;;;;5.13;2.83;;;;;;;1.44;98.67;96269.84;5025858;28;20521;-55
2023/04/15 01:04:43;;;;;;;7.15;3.33;;;;;;;1.51;97.84;96275.91;5012809;28;20065;-57
2023/04/15 01:07:09;;;;;;;8.35;2.92;;;;;;;1.49;98.13;96270.00;5023458;28;20048;-56
2023/04/15 01:09:36;;;;;;;7.32;3.05;;;;;;;1.46;98.30;96273.09;5022705;28;20090;-57
2023/04/15 01:12:03;;;;;;;4.78;2.60;;;;;;;1.43;98.12;96268.19;5023627;28;20092;-56
2023/04/15 01:14:30;;;;;;;6.57;3.05;;;;;;;1.46;97.83;96274.94;5025889;28;20049;-57
2023/04/15 01:16:57;;;;;;;8.48;3.28;;;;;;;1.34;98.48;96272.19;5022550;28;20073;-56
2023/04/15 01:19:24;;;;;;;5.97;2.95;;;;;;;1.34;98.71;96266.84;5016296;28;20044;-55
2023/04/15 01:21:51;;;;;;;8.60;3.65;;;;;;;1.29;98.59;96272.88;5021559;28;20484;-58
2023/04/15 01:24:18;;;;;;;5.82;2.30;;;;;;;1.27;98.95;96277.59;5018296;28;20042;-56
2023/04/15 01:26:45;;;;;;;7.70;2.40;;;;;;;1.23;99.48;96265.72;5014602;28;20042;-58
2023/04/15 01:29:12;;;;;;;10.38;3.58;;;;;;;1.16;99.34;96269.28;5022329;28;20053;-58
2023/04/15 01:31:38;;;;;;;9.20;3.10;;;;;;;1.13;99.80;96268.88;5012649;28;20776;-56
2023/04/15 01:34:05;;;;;;;8.30;2.97;;;;;;;1.19;99.67;96273.38;5010620;28;20038;-58
2023/04/15 01:36:32;;;;;;;5.72;2.75;;;;;;;1.15;99.90;96270.31;5024483;28;20518;-57
2023/04/15 01:38:58;;;;;;;6.43;3.15;;;;;;;1.13;99.88;96261.72;5009805;28;20310;-57
2023/04/15 01:41:26;;;;;;;7.25;3.25;;;;;;;1.10;100.00;96264.81;5019385;28;20632;-58
2023/04/15 01:43:54;;;;;;;8.07;2.80;;;;;;;1.00;100.00;96267.97;5021004;28;20076;-56
2023/04/15 01:46:20;;;;;;;7.35;3.08;;;;;;;0.94;100.00;96270.69;5017059;28;20111;-58
2023/04/15 01:48:47;;;;;;;8.95;2.67;;;;;;;0.86;100.00;96267.28;5024660;28;20041;-58
2023/04/15 01:51:13;;;;;;;7.13;3.25;;;;;;;0.79;100.00;96263.84;5021581;28;20414;-58
2023/04/15 01:53:40;;;;;;;7.10;3.00;;;;;;;0.85;100.00;96262.16;5025075;28;20049;-58
2023/04/15 01:56:07;;;;;;;8.38;2.80;;;;;;;0.89;100.00;96258.03;5025001;28;20055;-56
2023/04/15 01:58:34;;;;;;;6.35;3.05;;;;;;;0.89;100.00;96258.03;5008415;28;20121;-57
2023/04/15 02:01:01;;;;;;;5.70;2.80;;;;;;;0.96;100.00;96257.97;5023169;28;20068;-58
2023/04/15 02:03:30;;;;;;;7.93;2.90;;;;;;;1.11;100.00;96260.31;5014484;28;21470;-57
2023/04/15 02:05:57;;;;;;;6.55;2.67;;;;;;;1.15;100.00;96251.63;5017713;28;20042;-57
2023/04/15 02:08:23;;;;;;;5.45;3.03;;;;;;;1.20;100.00;96256.31;5027685;28;20041;-54
2023/04/15 02:10:50;;;;;;;4.53;2.30;;;;;;;1.21;100.00;96252.63;5022380;28;20037;-58
2023/04/15 02:13:17;;;;;;;6.43;2.33;;;;;;;1.27;99.56;96257.09;5034467;28;20112;-58
2023/04/15 02:15:47;;;;;;;7.35;2.85;;;;;;;1.24;100.00;96260.19;5028491;28;20091;-58
2023/04/15 02:18:15;;;;;;;6.50;2.53;;;;;;;1.35;99.47;96255.97;5027903;28;20061;-57
2023/04/15 02:20:45;;;;;;;6.97;2.97;;;;;;;1.39;98.90;96257.16;5017626;28;20068;-57
2023/04/15 02:23:12;;;;;;;5.03;2.83;;;;;;;1.45;98.37;96252.81;5027193;28;20064;-57
2023/04/15 02:25:42;;;;;;;5.22;2.28;;;;;;;1.46;98.76;96253.59;5026182;28;20033;-55
2023/04/15 02:28:19;;;;;;;5.43;2.53;;;;;;;1.44;98.96;96251.19;5018035;28;20045;-56
2023/04/15 02:30:49;;;;;;;7.40;2.85;;;;;;;1.43;98.81;96252.19;5022100;28;20040;-57
2023/04/15 02:33:16;;;;;;;8.80;2.90;;;;;;;1.45;98.60;96254.66;5026231;28;20041;-57
2023/04/15 02:35:44;;;;;;;5.43;2.95;;;;;;;1.48;98.03;96254.22;5026230;28;20049;-57
2023/04/15 02:38:11;;;;;;;7.32;2.30;;;;;;;1.45;98.36;96251.97;5028878;28;20576;-58
2023/04/15 02:40:37;;;;;;;8.05;2.78;;;;;;;1.36;98.32;96249.59;5023124;28;20533;-57
2023/04/15 02:43:06;;;;;;;6.93;2.65;;;;;;;1.35;98.49;96249.81;5025033;28;20680;-58
2023/04/15 02:45:33;;;;;;;4.85;2.38;;;;;;;1.39;98.29;96249.16;5026094;28;20084;-57
2023/04/15 02:48:04;;;;;;;4.50;2.28;;;;;;;1.39;98.60;96243.84;5019035;28;20125;-57
2023/04/15 02:50:31;;;;;;;4.53;2.28;;;;;;;1.38;98.17;96247.53;5026950;28;20049;-56
2023/04/15 02:53:00;;;;;;;4.68;2.60;;;;;;;1.33;98.61;96243.91;5029456;28;20039;-55
2023/04/15 02:55:27;;;;;;;9.45;2.50;;;;;;;1.39;98.28;96241.16;5018277;28;20632;-57
2023/04/15 02:57:54;;;;;;;6.53;2.70;;;;;;;1.33;99.08;96242.06;5026880;28;20129;-58
2023/04/15 03:00:21;;;;;;;5.55;2.30;;;;;;;1.29;98.97;96247.00;5025772;28;20048;-54
2023/04/15 03:02:50;;;;;;;7.47;3.00;;;;;;;1.26;99.93;96243.97;5027710;28;20033;-58
2023/04/15 03:05:17;;;;;;;4.43;2.72;;;;;;;1.31;99.20;96238.78;5027194;28;20049;-58
2023/04/15 03:07:49;;;;;;;5.32;2.58;;;;;;;1.30;98.97;96235.28;5018774;28;20088;-56
2023/04/15 03:10:16;;;;;;;6.32;2.38;;;;;;;1.32;98.62;96243.06;5023929;28;20100;-56
2023/04/15 03:12:45;;;;;;;6.07;2.40;;;;;;;1.26;98.99;96246.63;5022734;28;20421;-57
2023/04/15 03:15:16;;;;;;;5.82;2.15;;;;;;;1.32;98.80;96240.41;5024307;28;20058;-57
2023/04/15 03:17:48;;;;;;;4.70;2.58;;;;;;;1.32;98.57;96239.59;5019492;28;20061;-57
2023/04/15 03:20:14;;;;;;;5.05;2.40;;;;;;;1.28;99.02;96248.03;5025859;28;20037;-57
2023/04/15 03:22:41;;;;;;;5.55;2.60;;;;;;;1.28;98.55;96250.72;5024587;28;20826;-57
2023/04/15 03:25:08;;;;;;;6.50;2.67;;;;;;;1.29;98.33;96243.53;5022521;28;20141;-58
2023/04/15 03:27:37;;;;;;;6.28;2.72;;;;;;;1.34;97.68;96241.00;5028974;28;20417;-56
2023/04/15 03:30:05;;;;;;;9.15;3.10;;;;;;;1.14;98.97;96243.88;5023238;28;20036;-56
2023/04/15 03:32:33;;;;;;;7.40;2.78;;;;;;;1.23;99.31;96247.06;5023211;28;20128;-55
2023/04/15 03:35:00;;;;;;;6.55;2.72;;;;;;;1.20;98.73;96245.66;5023270;28;20656;-57
2023/04/15 03:37:26;;;;;;;4.78;2.95;;;;;;;1.11;99.58;96245.09;5031005;28;20099;-56
2023/04/15 03:39:53;;;;;;;9.07;3.00;;;;;;;0.85;100.00;96238.97;5027841;28;20069;-56
2023/04/15 03:42:19;;;;;;;8.48;3.22;;;;;;;0.77;100.00;96241.91;5024131;28;20507;-57
2023/04/15 03:44:46;;;;;;;7.25;3.20;;;;;;;0.75;100.00;96236.81;5026589;28;20599;-54
2023/04/15 03:47:12;;;;;;;6.88;2.90;;;;;;;0.78;100.00;96240.91;5016039;28;20076;-57
2023/04/15 03:49:39;;;;;;;5.15;2.70;;;;;;;0.79;100.00;96237.19;5026694;28;20111;-57
2023/04/15 03:52:05;;;;;;;7.93;3.35;;;;;;;0.88;100.00;96246.53;5028826;28;20107;-55
2023/04/15 03:54:32;;;;;;;4.93;2.67;;;;;;;0.95;100.00;96240.38;5021474;28;20595;-57
2023/04/15 03:56:58;;;;;;;5.97;2.83;;;;;;;0.96;100.00;96236.66;5028310;28;20069;-58
2023/04/15 03:59:25;;;;;;;6.32;2.90;;;;;;;0.94;100.00;96239.53;5027626;28;20124;-57
2023/04/15 04:01:51;;;;;;;5.75;2.72;;;;;;;0.89;100.00;96236.72;5022304;28;20065;-57
2023/04/15 04:04:18;;;;;;;5.35;2.42;;;;;;;0.93;100.00;96242.41;5026522;28;20132;-57
2023/04/15 04:06:44;;;;;;;5.53;2.67;;;;;;;0.87;100.00;96244.09;5026725;28;20111;-54
2023/04/15 04:09:11;;;;;;;7.78;2.40;;;;;;;0.99;99.95;96239.69;5015060;28;20084;-57
2023/04/15 04:11:37;;;;;;;7.53;2.92;;;;;;;0.84;100.00;96245.34;5020797;28;20045;-56
2023/04/15 04:14:04;;;;;;;7.03;2.53;;;;;;;0.94;100.00;96246.69;5020789;28;20045;-56
2023/04/15 04:16:31;;;;;;;5.70;2.22;;;;;;;0.92;100.00;96251.44;5021416;28;20053;-56
2023/04/15 04:18:57;;;;;;;4.43;2.55;;;;;;;1.02;99.70;96255.25;5021946;28;20042;-57
2023/04/15 04:21:24;;;;;;;8.90;3.38;;;;;;;1.12;99.51;96254.75;5025624;28;20531;-58
2023/04/15 04:23:50;;;;;;;7.72;2.70;;;;;;;1.12;99.00;96251.28;5023893;28;20053;-55
2023/04/15 04:26:17;;;;;;;9.23;2.80;;;;;;;0.89;100.00;96250.03;5027603;28;20517;-58
2023/04/15 04:28:43;;;;;;;7.82;2.88;;;;;;;0.82;100.00;96251.94;5022373;28;20100;-55
2023/04/15 04:31:10;;;;;;;7.30;2.90;;;;;;;0.72;100.00;96252.41;5026432;28;20041;-58
2023/04/15 04:33:37;;;;;;;7.10;2.88;;;;;;;0.77;100.00;96250.72;5013898;28;20045;-58
2023/04/15 04:36:04;;;;;;;9.25;2.70;;;;;;;0.74;100.00;96251.16;5023583;28;20046;-57
2023/04/15 04:38:30;;;;;;;6.22;3.38;;;;;;;0.75;100.00;96257.31;5026360;28;20052;-56
2023/04/15 04:40:57;;;;;;;5.70;2.80;;;;;;;0.68;100.00;96253.88;5022977;28;20043;-58
2023/04/15 04:43:23;;;;;;;6.25;2.47;;;;;;;0.70;100.00;96257.94;5027195;28;20471;-57
2023/04/15 04:45:50;;;;;;;6.97;2.97;;;;;;;0.72;100.00;96257.75;5029999;28;20045;-58
2023/04/15 04:48:17;;;;;;;6.35;2.88;;;;;;;0.73;100.00;96262.03;5028509;28;20047;-56
2023/04/15 04:50:44;;;;;;;6.38;3.40;;;;;;;0.60;100.00;96258.47;5014839;28;20069;-56
2023/04/15 04:53:10;;;;;;;5.88;2.80;;;;;;;0.57;100.00;96266.03;5032151;28;20119;-57
2023/04/15 04:55:37;;;;;;;6.13;3.08;;;;;;;0.60;100.00;96260.28;5014741;28;20091;-57
2023/04/15 04:58:04;;;;;;;7.97;2.92;;;;;;;0.56;100.00;96259.91;5024388;28;20052;-58
2023/04/15 05:00:30;;;;;;;8.80;3.22;;;;;;;0.49;100.00;96267.97;5017309;28;20587;-58
2023/04/15 05:02:57;;;;;;;5.72;2.45;;;;;;;0.61;100.00;96268.06;5022854;28;20050;-56
2023/04/15 05:05:24;;;;;;;5.40;2.55;;;;;;;0.75;100.00;96271.47;5026306;28;20045;-57
2023/04/15 05:07:50;;;;;;;6.05;2.28;;;;;;;0.83;100.00;96273.03;5029025;28;20068;-56
2023/04/15 05:10:17;;;;;;;7.20;2.72;;;;;;;0.98;100.00;96274.56;5023855;28;20049;-56
2023/04/15 05:12:43;;;;;;;4.40;2.50;;;;;;;0.99;100.00;96266.34;5027616;28;20043;-58
2023/04/15 05:15:10;;;;;;;5.25;2.53;;;;;;;1.07;100.00;96267.13;5027232;28;20053;-57
2023/04/15 05:17:37;;;;;;;5.43;2.72;;;;;;;0.98;100.00;96272.72;5015772;28;20040;-55
2023/04/15 05:20:03;;;;;;;5.43;2.75;;;;;;;1.13;100.00;96274.22;5028412;28;20574;-58
2023/04/15 05:22:30;;;;;;;5.63;2.65;;;;;;;1.20;99.74;96271.50;5011893;28;20061;-57
2023/04/15 05:24:56;;;;;;;7.43;2.90;;;;;;;1.25;99.70;96277.81;5025976;28;20037;-58
2023/04/15 05:27:23;;;;;;;7.82;3.25;;;;;;;1.27;100.00;96273.09;5025687;28;20045;-58
2023/04/15 05:29:50;;;;;;;9.68;3.40;;;;;;;1.22;100.00;96274.78;5024880;28;20844;-57
2023/04/15 05:32:17;;;;;;;6.75;2.50;;;;;;;1.34;100.00;96266.84;5018135;28;20092;-56
2023/04/15 05:34:43;;;;;;;8.68;3.15;;;;;;;1.36;99.93;96265.59;5018430;28;20037;-56
2023/04/15 05:37:10;;;;;;;6.28;3.20;;;;;;;1.49;100.00;96269.19;5023435;28;20717;-57
2023/04/15 05:39:36;;;;;;;6.93;2.85;;;;;;;1.50;100.00;96273.47;5019443;28;20106;-57
2023/04/15 05:42:04;;;;;;;8.57;3.33;;;;;;;1.75;99.43;96272.59;5019214;28;20045;-58
2023/04/15 05:44:31;;;;;;;6.05;2.63;;;;;;;2.00;98.06;96269.84;5023458;28;20049;-56
2023/04/15 05:46:58;;;;;;;7.75;2.90;;;;;;;2.20;96.45;96274.13;5032660;28;20034;-58
2023/04/15 05:49:25;;;;;;;7.68;3.30;;;;;;;2.29;95.34;96277.28;5033368;28;20049;-56
2023/04/15 05:51:51;;;;;;;9.18;2.65;;;;;;;2.32;95.38;96277.66;5026018;28;20034;-58
2023/04/15 05:54:18;;;;;;;6.18;2.47;;;;;;;2.31;95.04;96276.03;5031064;28;20055;-56
2023/04/15 05:56:45;;;;;;;8.60;2.70;;;;;;;2.25;95.74;96284.13;5028591;28;20049;-58
2023/04/15 05:59:12;;;;;;;5.40;2.72;;;;;;;2.25;96.48;96287.59;5034146;28;20544;-58
2023/04/15 06:01:39;;;;;;;6.82;2.95;;;;;;;2.27;96.48;96288.19;5028668;28;20551;-58
2023/04/15 06:04:05;;;;;;;7.57;3.00;;;;;;;2.33;95.48;96291.84;5024294;28;20069;-56
2023/04/15 06:06:32;;;;;;;6.03;2.83;;;;;;;2.42;94.77;96290.47;5029901;28;20057;-56
2023/04/15 06:08:59;;;;;;;7.13;3.42;;;;;;;2.56;94.16;96285.78;5032696;28;20124;-57
2023/04/15 06:11:26;;;;;;;6.80;2.88;;;;;;;2.64;94.34;96289.13;5032533;28;20052;-56
2023/04/15 06:13:52;;;;;;;11.02;3.38;;;;;;;2.75;94.21;96284.88;5031432;28;20048;-56
2023/04/15 06:16:19;;;;;;;5.53;2.35;;;;;;;2.73;94.31;96291.25;5026080;28;20128;-57
2023/04/15 06:18:45;;;;;;;6.93;2.85;;;;;;;2.78;94.01;96287.09;5026461;28;20045;-56
2023/04/15 06:21:12;;;;;;;4.80;2.55;;;;;;;2.82;94.44;96285.59;5024917;28;20072;-57
2023/04/15 06:23:40;;;;;;;8.85;2.50;;;;;;;2.90;93.73;96289.78;5030010;28;20037;-57
2023/04/15 06:26:06;;;;;;;8.18;2.70;;;;;;;2.98;93.71;96292.13;5029747;28;20144;-60
2023/04/15 06:28:33;;;;;;;8.40;3.00;;;;;;;3.09;94.46;96302.03;5031143;28;20044;-58
2023/04/15 06:31:00;;;;;;;4.72;2.45;;;;;;;3.27;92.51;96294.16;5028221;28;20042;-57
2023/04/15 06:33:27;;;;;;;5.15;2.45;;;;;;;3.43;93.04;96295.31;5027865;28;20436;-57
2023/04/15 06:35:53;;;;;;;7.07;2.63;;;;;;;3.59;93.51;96299.97;5023549;28;20120;-58
2023/04/15 06:38:20;;;;;;;6.75;2.80;;;;;;;3.73;91.75;96297.84;5031925;28;20166;-56
2023/04/15 06:40:47;;;;;;;6.43;2.28;;;;;;;3.92;90.99;96299.59;5030966;28;20088;-57
2023/04/15 06:43:14;;;;;;;7.88;2.72;;;;;;;4.07;89.70;96293.72;5025606;28;20045;-57
2023/04/15 06:45:40;;;;;;;7.75;2.40;;;;;;;4.18;89.21;96300.94;5030584;28;20486;-57
2023/04/15 06:48:06;;;;;;;5.78;2.38;;;;;;;4.34;89.66;96310.09;5029388;28;20561;-56
2023/04/15 06:50:34;;;;;;;5.07;2.40;;;;;;;4.47;89.69;96305.50;5029729;28;20041;-57
2023/04/15 06:53:00;;;;;;;8.43;2.97;;;;;;;4.63;89.83;96306.59;5035128;28;20049;-57
2023/04/15 06:55:27;;;;;;;7.65;2.72;;;;;;;4.76;89.06;96305.50;5028242;28;20072;-57
2023/04/15 06:57:53;;;;;;;4.90;2.40;;;;;;;4.86;88.47;96299.50;5027969;28;20041;-58
2023/04/15 07:00:20;;;;;;;6.63;2.28;;;;;;;5.01;89.04;96302.44;5030304;28;20143;-58
2023/04/15 07:02:46;;;;;;;6.65;2.40;;;;;;;5.16;88.61;96303.75;5024364;28;20073;-56
2023/04/15 07:05:13;;;;;;;8.30;2.70;;;;;;;5.31;87.96;96300.50;5031683;28;20053;-60
2023/04/15 07:07:40;;;;;;;7.82;2.80;;;;;;;5.44;85.43;96300.16;5006469;28;20044;-58
2023/04/15 07:10:07;;;;;;;6.13;2.35;;;;;;;5.64;84.62;96304.19;5020754;28;20470;-57
2023/04/15 07:12:34;;;;;;;5.85;2.92;;;;;;;5.81;84.88;96309.56;5024381;28;20041;-57
2023/04/15 07:15:01;;;;;;;4.45;1.73;;;;;;;6.00;83.60;96301.19;5020296;28;20056;-57
2023/04/15 07:17:27;;;;;;;5.45;2.10;;;;;;;6.18;81.92;96299.28;5030690;28;20045;-58
2023/04/15 07:19:54;;;;;;;4.45;1.80;;;;;;;6.34;80.98;96290.34;5029137;28;20067;-56
2023/04/15 07:22:20;;;;;;;4.95;2.20;;;;;;;6.57;81.39;96295.72;5019085;28;20137;-57
2023/04/15 07:24:47;;;;;;;8.48;2.58;;;;;;;6.83;79.81;96295.97;5032636;28;20049;-59
2023/04/15 07:27:13;;;;;;;7.15;2.30;;;;;;;7.03;78.73;96287.25;5026497;28;20076;-58
2023/04/15 07:29:40;;;;;;;9.48;2.72;;;;;;;7.24;78.18;96293.66;5026994;28;20387;-58
2023/04/15 07:32:06;;;;;;;7.93;2.35;;;;;;;7.53;77.14;96300.59;5022732;28;20053;-58
2023/04/15 07:34:33;;;;;;;10.32;2.53;;;;;;;7.76;76.14;96295.88;5027629;28;20041;-58
2023/04/15 07:37:00;;;;;;;7.55;2.45;;;;;;;7.98;74.45;96300.31;5021668;28;20121;-57
2023/04/15 07:39:28;;;;;;;7.47;2.45;;;;;;;8.16;73.63;96297.19;5024844;28;20053;-57
2023/04/15 07:41:55;;;;;;;6.13;2.17;;;;;;;8.36;72.67;96292.13;5026729;28;20125;-58
2023/04/15 07:44:21;;;;;;;7.25;2.33;;;;;;;8.57;71.28;96296.53;5029714;28;20127;-58
2023/04/15 07:46:48;;;;;;;4.80;2.00;;;;;;;8.74;69.07;96292.00;5026402;28;20080;-57
2023/04/15 07:49:14;;;;;;;4.63;2.05;;;;;;;8.90;68.33;96290.13;5030477;28;20076;-57
2023/04/15 07:51:41;;;;;;;3.63;1.48;;;;;;;9.05;66.99;96290.16;5027647;28;20418;-58
2023/04/15 07:54:07;;;;;;;5.13;1.40;;;;;;;9.03;64.90;96291.50;5029028;28;20065;-57
2023/04/15 07:56:34;;;;;;;4.20;1.67;;;;;;;9.21;65.90;96290.97;5025196;28;20412;-58
2023/04/15 07:59:04;;;;;;;2.28;1.10;;;;;;;9.40;64.70;96287.72;5029291;28;20424;-56
2023/04/15 08:01:31;;;;;;;4.32;1.60;;;;;;;9.61;62.74;96287.69;5021558;28;20118;-58
2023/04/15 08:03:58;;;;;;;6.03;2.17;;;;;;;9.79;59.21;96286.31;5028233;28;20761;-58
2023/04/15 08:06:26;;;;;;;5.60;1.67;;;;;;;9.91;59.64;96288.72;5028688;28;20049;-58
2023/04/15 08:08:54;;;;;;;5.88;1.50;;;;;;;9.99;57.52;96281.97;5029634;28;20136;-57
2023/04/15 08:11:20;;;;;;;3.33;1.40;;;;;;;10.12;58.33;96283.25;5020806;28;20050;-57
2023/04/15 08:13:47;;;;;;;3.70;1.35;;;;;;;10.20;57.91;96284.56;5027291;28;20042;-57
2023/04/15 08:16:18;;;;;;;5.38;1.60;;;;;;;10.36;57.64;96283.41;5028147;28;20049;-57
2023/04/15 08:18:46;;;;;;;3.50;1.33;;;;;;;10.52;56.92;96286.09;5025562;28;20061;-57
2023/04/15 08:21:13;;;;;;;4.82;1.67;;;;;;;10.47;54.67;96286.13;5026091;28;20052;-56
2023/04/15 08:23:39;;;;;;;4.35;1.80;;;;;;;10.56;53.32;96291.75;5033810;28;20079;-59
2023/04/15 08:26:07;;;;;;;4.07;1.50;;;;;;;10.62;53.32;96290.66;5032788;28;20045;-56
2023/04/15 08:28:34;;;;;;;3.10;1.40;;;;;;;10.76;52.94;96296.28;5021268;28;20174;-58
2023/04/15 08:31:01;;;;;;;5.57;1.83;;;;;;;10.74;54.72;96285.72;5025777;28;20144;-59
2023/04/15 08:33:27;;;;;;;5.05;1.50;;;;;;;10.68;54.50;96299.56;5023752;28;20072;-58
2023/04/15 08:35:54;;;;;;;4.43;1.58;;;;;;;10.72;54.78;96297.91;5023847;28;20041;-58
2023/04/15 08:38:20;;;;;;;4.63;1.50;;;;;;;10.63;54.18;96294.97;5027635;28;20128;-59
2023/04/15 08:40:47;;;;;;;4.13;1.35;;;;;;;10.83;54.40;96298.66;5026425;28;20042;-57
2023/04/15 08:43:27;;;;;;;6.00;1.60;;;;;;;10.82;51.84;96305.16;5028648;28;20059;-57
2023/04/15 08:45:54;;;;;;;4.55;1.73;;;;;;;11.11;54.75;96299.00;5025478;28;20041;-57
2023/04/15 08:48:23;;;;;;;5.20;1.30;;;;;;;11.37;51.63;96305.06;5029461;28;20080;-58
2023/04/15 08:50:50;;;;;;;4.90;1.80;;;;;;;11.31;50.17;96300.75;5027906;28;20104;-58
2023/04/15 08:53:17;;;;;;;4.43;1.73;;;;;;;11.29;51.92;96298.34;5020650;28;20049;-58
2023/04/15 08:55:45;;;;;;;4.53;1.35;;;;;;;11.53;52.40;96300.31;5020135;28;20073;-58
2023/04/15 08:58:15;;;;;;;6.72;2.33;;;;;;;11.61;51.53;96298.88;5019006;28;20671;-57
2023/04/15 09:00:41;;;;;;;3.13;1.27;;;;;;;11.76;49.92;96300.63;5026212;28;20073;-58
2023/04/15 09:03:08;;;;;;;3.97;1.50;;;;;;;11.86;49.93;96298.94;5023361;28;20033;-59
2023/04/15 09:05:36;;;;;;;4.43;1.55;;;;;;;11.98;50.16;96299.34;5028369;28;20037;-56
2023/04/15 09:08:04;;;;;;;2.17;1.35;;;;;;;11.87;49.62;96308.69;5019300;28;20581;-56
2023/04/15 09:10:32;;;;;;;3.25;1.83;;;;;;;11.67;49.57;96310.50;5018140;28;20054;-57
2023/04/15 09:13:00;;;;;;;2.63;1.10;;;;;;;11.88;50.15;96305.69;5025741;28;20540;-55
2023/04/15 09:15:28;;;;;;;4.05;1.65;;;;;;;11.81;51.06;96311.47;5020491;28;20046;-56
2023/04/15 09:17:55;;;;;;;4.28;1.98;;;;;;;11.85;51.70;96314.41;5021443;28;20458;-58
2023/04/15 09:20:22;;;;;;;5.03;1.60;;;;;;;11.91;48.97;96321.38;5018840;28;20049;-58
2023/04/15 09:22:50;;;;;;;3.10;1.30;;;;;;;12.07;48.79;96324.78;5012916;28;20053;-58
2023/04/15 09:25:27;;;;;;;4.63;1.50;;;;;;;12.08;48.68;96329.13;5026005;28;20045;-57
2023/04/15 09:27:56;;;;;;;5.03;1.85;;;;;;;12.06;48.13;96328.56;5024620;28;20524;-59
2023/04/15 09:30:23;;;;;;;2.88;1.45;;;;;;;12.07;47.84;96329.41;5021937;28;20104;-58
2023/04/15 09:32:53;;;;;;;6.63;2.00;;;;;;;11.97;48.58;96333.00;5026194;28;20575;-58
2023/04/15 09:35:21;;;;;;;3.53;1.40;;;;;;;11.93;49.66;96331.94;5029425;28;20052;-57
2023/04/15 09:37:48;;;;;;;5.20;1.60;;;;;;;11.97;48.46;96320.25;5011427;28;20076;-59
2023/04/15 09:40:39;;;;;;;3.58;1.60;;;;;;;12.05;48.63;96329.69;5021008;28;20056;-58
2023/04/15 09:43:08;;;;;;;7.38;1.40;;;;;;;12.13;48.86;96330.97;5026463;28;20135;-56
2023/04/15 09:45:35;;;;;;;4.07;1.90;;;;;;;12.22;49.66;96331.97;5017267;28;20482;-55
2023/04/15 09:48:14;;;;;;;4.70;1.58;;;;;;;12.35;48.77;96330.44;5022067;28;20436;-55
2023/04/15 09:50:43;;;;;;;2.50;1.33;;;;;;;12.45;50.56;96337.66;4993623;28;20044;-56
2023/04/15 09:53:12;;;;;;;7.40;2.25;;;;;;;12.40;47.83;96340.44;5019470;28;20143;-56
2023/04/15 09:55:42;;;;;;;3.65;2.05;;;;;;;12.42;48.64;96342.88;5016671;28;20116;-56
2023/04/15 09:58:16;;;;;;;4.30;1.80;;;;;;;12.66;49.73;96340.13;5017253;28;20045;-57
2023/04/15 10:00:45;;;;;;;5.55;1.75;;;;;;;12.96;48.84;96332.69;5022258;28;20107;-59
2023/04/15 10:03:17;;;;;;;6.07;2.30;;;;;;;12.26;49.89;96340.31;5024137;28;20061;-56
2023/04/15 10:05:46;;;;;;;6.22;1.75;;;;;;;12.09;49.57;96333.44;5024276;28;20076;-59
2023/04/15 10:08:15;;;;;;;5.95;2.17;;;;;;;12.31;50.42;96342.97;5018095;28;20053;-57
2023/04/15 10:10:41;;;;;;;3.83;1.70;;;;;;;12.05;49.16;96335.09;5019635;28;20060;-57
2023/04/15 10:13:08;;;;;;;4.25;1.70;;;;;;;12.29;49.42;96342.47;5025192;28;20050;-59
2023/04/15 10:15:35;;;;;;;3.95;1.67;;;;;;;12.02;50.27;96335.63;5030370;28;20048;-58
2023/04/15 10:18:04;;;;;;;3.22;1.50;;;;;;;12.33;47.88;96343.50;5013336;28;20505;-58
2023/04/15 10:20:30;;;;;;;4.15;2.35;;;;;;;12.27;47.75;96347.34;5022246;28;20127;-57
2023/04/15 10:22:57;;;;;;;11.70;1.45;;;;;;;12.29;44.02;96339.75;5021690;28;20091;-58
2023/04/15 10:25:25;;;;;;;4.07;2.00;;;;;;;12.64;42.75;96350.47;5025613;28;20049;-58
2023/04/15 10:27:52;;;;;;;6.10;1.75;;;;;;;12.87;41.78;96345.31;5022812;28;20042;-59
2023/04/15 10:30:19;;;;;;;4.57;2.38;;;;;;;12.89;43.21;96345.81;5025504;28;20084;-58
2023/04/15 10:32:46;;;;;;;3.65;1.20;;;;;;;12.94;43.22;96353.09;5028855;28;20037;-57
2023/04/15 10:35:13;;;;;;;3.28;1.50;;;;;;;12.92;43.23;96355.28;5025809;28;20049;-58
2023/04/15 10:37:39;;;;;;;4.15;1.50;;;;;;;12.90;44.03;96355.56;5027035;28;20053;-59
2023/04/15 10:40:22;;;;;;;7.68;1.70;;;;;;;13.03;44.60;96355.94;5025611;28;20068;-59
2023/04/15 10:42:49;;;;;;;4.15;1.83;;;;;;;13.09;44.98;96360.22;5030685;28;20113;-59
2023/04/15 10:45:17;;;;;;;5.10;1.58;;;;;;;12.84;43.47;96373.03;5031105;28;20464;-58
2023/04/15 10:47:44;;;;;;;4.28;1.48;;;;;;;12.95;42.61;96377.25;5031854;28;20513;-58
2023/04/15 10:50:11;;;;;;;6.70;1.58;;;;;;;12.51;42.82;96378.31;5030909;28;20037;-58
2023/04/15 10:52:41;;;;;;;6.97;1.85;;;;;;;12.75;43.83;96381.84;5032679;28;20029;-56
2023/04/15 10:55:12;;;;;;;6.30;2.00;;;;;;;12.94;43.35;96386.47;5026569;28;20076;-58
2023/04/15 10:57:40;;;;;;;8.07;2.23;;;;;;;12.92;41.42;96393.31;5024523;28;20098;-58
2023/04/15 11:00:12;;;;;;;4.13;1.92;;;;;;;12.67;43.05;96384.38;5036802;28;20586;-58
2023/04/15 11:02:40;;;;;;;4.88;1.80;;;;;;;12.77;44.10;96389.69;5034471;28;20043;-56
2023/04/15 11:05:08;;;;;;;5.68;2.05;;;;;;;12.51;44.77;96387.28;5032583;28;20045;-58
2023/04/15 11:07:48;;;;;;;7.05;2.35;;;;;;;12.58;44.71;96386.94;5033310;28;20687;-57
2023/04/15 11:10:34;;;;;;;4.85;1.80;;;;;;;12.83;46.17;96385.81;5031231;28;20049;-58
2023/04/15 11:13:15;;;;;;;7.05;1.77;;;;;;;12.52;46.42;96383.47;5023919;28;20112;-59
2023/04/15 11:15:44;;;;;;;5.07;1.60;;;;;;;12.39;47.34;96382.25;5022877;28;20519;-57
2023/04/15 11:18:17;;;;;;;3.33;1.30;;;;;;;12.68;46.62;96391.44;5029208;28;20497;-58
2023/04/15 11:20:49;;;;;;;4.90;1.70;;;;;;;13.02;46.97;96395.91;5026686;28;20041;-58
2023/04/15 11:23:27;;;;;;;5.47;2.05;;;;;;;12.88;46.62;96382.22;5029750;28;20059;-59
2023/04/15 11:25:56;;;;;;;6.05;2.40;;;;;;;13.11;47.41;96388.72;5021268;28;20471;-58
2023/04/15 11:28:27;;;;;;;7.75;2.20;;;;;;;13.22;48.84;96388.56;5027284;28;20064;-59
2023/04/15 11:30:54;;;;;;;7.03;2.83;;;;;;;13.30;48.15;96390.63;5031923;28;20152;-59
2023/04/15 11:33:22;;;;;;;8.60;3.33;;;;;;;13.17;48.55;96394.91;5028704;28;20115;-59
2023/04/15 11:35:51;;;;;;;8.70;3.78;;;;;;;13.00;49.06;96400.81;5031577;28;20044;-59
2023/04/15 11:38:18;;;;;;;9.40;3.05;;;;;;;13.06;48.44;96398.84;5026232;28;20033;-59